Time;durP1;ratioP1;P1;durP2;ratioP2;P2;SDS_P1;SDS_P2;PMS_P1;PMS_P2;Temp;Humidity;BMP_temperature;BMP_pressure;BME280_temperature;BME280_humidity;BME280_pressure;Samples;Min_cycle;Max_cycle;Signal;HPM_P1;HPM_P2
2021/01/27 06:05:15;;;;;;;7.50;3.47;;;;;;;;;;6321183;22;20053;-83
2021/01/27 06:07:41;;;;;;;7.55;4.03;;;;;;;;;;6316762;22;20022;-83
2021/01/27 06:10:36;;;;;;;5.18;3.10;;;;;;;;;;6318552;22;20002;-83
2021/01/27 06:13:17;;;;;;;7.45;3.90;;;;;;;;;;6297351;22;20068;-83
2021/01/27 06:15:43;;;;;;;6.05;3.22;;;;;;;;;;6338745;22;20018;-84
2021/01/27 06:18:27;;;;;;;10.43;3.85;;;;;;;;;;6340460;22;20003;-83
2021/01/27 06:20:59;;;;;;;6.90;3.38;;;;;;;;;;6336231;22;20007;-82
2021/01/27 06:23:44;;;;;;;7.55;4.10;;;;;;;;;;6317666;22;19999;-83
2021/01/27 06:26:18;;;;;;;7.82;3.58;;;;;;;;;;6317600;22;20328;-83
2021/01/27 06:29:08;;;;;;;6.72;3.17;;;;;;;;;;6317245;22;20011;-83
2021/01/27 06:31:46;;;;;;;6.68;3.45;;;;;;;;;;6316749;22;19995;-83
2021/01/27 06:34:12;;;;;;;7.75;3.63;;;;;;;;;;6314301;22;19999;-83
2021/01/27 06:36:56;;;;;;;5.55;3.03;;;;;;;;;;6314630;22;20003;-83
2021/01/27 06:39:40;;;;;;;6.47;2.85;;;;;;;;;;6315614;22;20006;-83
2021/01/27 06:42:17;;;;;;;4.13;2.70;;;;;;;;;;6314770;22;20010;-83
2021/01/27 06:45:02;;;;;;;6.13;3.15;;;;;;;;;;6314180;22;19999;-82
2021/01/27 06:47:33;;;;;;;7.82;3.70;;;;;;;;;;6315805;22;20069;-83
2021/01/27 06:52:18;;;;;;;7.05;3.83;;;;;;;;;;5124044;27;20357;-84
2021/01/27 06:55:02;;;;;;;5.80;3.13;;;;;;;;;;5120104;28;20494;-85
2021/01/27 06:57:35;;;;;;;9.77;3.63;;;;;;;;;;5123281;28;20047;-84
2021/01/27 07:00:01;;;;;;;7.97;3.60;;;;;;;;;;5109327;28;20057;-84
2021/01/27 07:04:48;;;;;;;6.53;3.50;;;;;;;;;;5119852;27;20380;-84
2021/01/27 07:07:34;;;;;;;8.38;4.38;;;;;;;;;;5110659;28;20064;-85
2021/01/27 07:10:07;;;;;;;6.75;3.88;;;;;;;;;;5114565;28;20023;-84
2021/01/27 07:12:36;;;;;;;8.68;3.33;;;;;;;;;;5111116;28;20030;-84
2021/01/27 07:15:23;;;;;;;9.80;4.13;;;;;;;;;;5109178;28;20028;-84
2021/01/27 07:17:48;;;;;;;7.78;3.35;;;;;;;;;;5116619;28;20039;-84
2021/01/27 07:20:14;;;;;;;6.68;3.75;;;;;;;;;;5115818;27;20016;-84
2021/01/27 07:22:50;;;;;;;11.65;4.43;;;;;;;;;;5116460;28;20480;-84
2021/01/27 07:25:21;;;;;;;7.95;3.90;;;;;;;;;;5118738;28;20042;-84
2021/01/27 07:27:50;;;;;;;6.45;3.50;;;;;;;;;;5105516;28;20059;-84
2021/01/27 07:30:18;;;;;;;6.40;3.95;;;;;;;;;;5122048;27;20076;-84
2021/01/27 07:32:52;;;;;;;7.75;3.67;;;;;;;;;;5119808;28;20031;-84
2021/01/27 07:35:20;;;;;;;8.25;3.75;;;;;;;;;;5121137;27;20041;-84
2021/01/27 07:38:04;;;;;;;8.00;3.80;;;;;;;;;;5118276;27;20019;-84
2021/01/27 07:40:35;;;;;;;6.72;3.00;;;;;;;;;;5118102;28;20030;-84
2021/01/27 07:43:11;;;;;;;9.77;3.30;;;;;;;;;;5113860;27;20023;-84
2021/01/27 07:45:38;;;;;;;9.57;4.38;;;;;;;;;;5119571;28;20039;-84
2021/01/27 07:48:22;;;;;;;14.00;5.38;;;;;;;;;;5116828;28;20436;-84
2021/01/27 07:50:52;;;;;;;19.70;8.10;;;;;;;;;;5124561;28;20023;-84
2021/01/27 07:53:19;;;;;;;20.25;9.15;;;;;;;;;;5111298;28;20024;-84
2021/01/27 07:56:04;;;;;;;19.70;9.57;;;;;;;;;;5116884;28;20051;-84
2021/01/27 07:58:35;;;;;;;17.63;7.32;;;;;;;;;;5121319;28;20028;-84
2021/01/27 08:01:00;;;;;;;12.98;6.57;;;;;;;;;;5099451;28;20024;-84
2021/01/27 08:03:41;;;;;;;10.10;5.40;;;;;;;;;;5110648;28;20064;-83
2021/01/27 08:06:14;;;;;;;9.23;5.40;;;;;;;;;;5096827;28;20734;-83
2021/01/27 08:08:52;;;;;;;17.95;5.32;;;;;;;;;;5112031;28;20859;-84
2021/01/27 08:11:33;;;;;;;6.93;4.43;;;;;;;;;;5113200;28;20046;-84
2021/01/27 08:13:58;;;;;;;30.75;17.23;;;;;;;;;;5105051;28;20277;-84
2021/01/27 08:16:32;;;;;;;18.30;10.98;;;;;;;;;;5086238;28;20379;-83
2021/01/27 08:19:07;;;;;;;10.05;5.15;;;;;;;;;;5084548;28;20039;-84
2021/01/27 08:21:50;;;;;;;6.03;3.92;;;;;;;;;;5090262;28;20051;-84
2021/01/27 08:24:37;;;;;;;9.18;4.68;;;;;;;;;;5092752;28;20023;-84
2021/01/27 08:27:16;;;;;;;8.73;4.40;;;;;;;;;;5093277;28;20112;-84
2021/01/27 08:30:05;;;;;;;7.97;4.20;;;;;;;;;;5088255;28;20103;-84
2021/01/27 08:32:57;;;;;;;4.32;2.67;;;;;;;;;;5082039;28;20051;-84
2021/01/27 08:35:42;;;;;;;4.95;2.72;;;;;;;;;;5083386;28;20085;-83
2021/01/27 08:38:32;;;;;;;5.53;2.72;;;;;;;;;;5087674;28;20020;-82
2021/01/27 08:41:28;;;;;;;4.78;2.53;;;;;;;;;;5091532;28;20479;-82
2021/01/27 08:44:20;;;;;;;3.78;2.25;;;;;;;;;;5081320;28;20056;-83
2021/01/27 08:47:00;;;;;;;4.38;2.35;;;;;;;;;;5092946;28;20036;-84
2021/01/27 08:49:44;;;;;;;4.57;2.13;;;;;;;;;;5085916;28;20538;-85
2021/01/27 08:52:10;;;;;;;4.28;2.67;;;;;;;;;;5076166;28;20038;-84
2021/01/27 08:54:42;;;;;;;5.65;2.35;;;;;;;;;;5084541;28;20024;-85
2021/01/27 08:57:15;;;;;;;5.10;2.95;;;;;;;;;;5080909;28;20028;-85
2021/01/27 08:59:53;;;;;;;8.68;4.60;;;;;;;;;;5075504;28;20470;-85
2021/01/27 09:02:37;;;;;;;7.55;5.05;;;;;;;;;;5079517;28;20028;-84
2021/01/27 09:05:06;;;;;;;5.82;3.88;;;;;;;;;;5080274;28;20015;-81
2021/01/27 09:07:33;;;;;;;5.43;3.17;;;;;;;;;;5088654;28;20048;-81
2021/01/27 09:10:02;;;;;;;5.15;2.80;;;;;;;;;;5085832;28;20011;-82
2021/01/27 09:12:28;;;;;;;6.32;2.90;;;;;;;;;;5084496;28;20045;-82
2021/01/27 09:14:54;;;;;;;6.20;3.47;;;;;;;;;;5079635;28;20020;-82
2021/01/27 09:17:20;;;;;;;5.30;3.28;;;;;;;;;;5078912;28;20552;-81
2021/01/27 09:19:45;;;;;;;6.60;4.05;;;;;;;;;;5078843;28;20389;-82
2021/01/27 09:22:31;;;;;;;5.70;3.88;;;;;;;;;;5084404;28;20039;-82
2021/01/27 09:27:20;;;;;;;7.65;4.18;;;;;;;;;;5096263;27;20355;-82
2021/01/27 09:29:46;;;;;;;9.90;5.43;;;;;;;;;;5098069;28;20067;-83
2021/01/27 09:32:14;;;;;;;6.30;3.75;;;;;;;;;;5095958;28;20022;-83
2021/01/27 09:34:40;;;;;;;6.38;3.20;;;;;;;;;;5090630;28;21408;-83
2021/01/27 09:37:20;;;;;;;6.97;2.90;;;;;;;;;;5094907;28;20023;-82
2021/01/27 09:39:50;;;;;;;4.38;2.55;;;;;;;;;;5087311;28;20028;-83
2021/01/27 09:42:23;;;;;;;3.53;1.92;;;;;;;;;;5093942;28;20031;-83
2021/01/27 09:44:52;;;;;;;3.45;1.35;;;;;;;;;;5093331;28;20031;-82
2021/01/27 09:47:18;;;;;;;4.63;2.40;;;;;;;;;;5094226;28;20032;-83
2021/01/27 09:49:48;;;;;;;3.35;2.00;;;;;;;;;;5096652;28;20050;-83
2021/01/27 09:52:15;;;;;;;3.65;2.05;;;;;;;;;;5094716;28;20405;-84
2021/01/27 09:54:42;;;;;;;4.35;2.30;;;;;;;;;;5096747;28;20058;-83
2021/01/27 09:57:09;;;;;;;3.85;2.05;;;;;;;;;;5092375;28;20059;-83
2021/01/27 09:59:35;;;;;;;3.03;1.65;;;;;;;;;;5101506;28;20016;-83
2021/01/27 10:02:01;;;;;;;4.88;2.50;;;;;;;;;;5098038;28;20027;-84
2021/01/27 10:04:32;;;;;;;11.75;6.75;;;;;;;;;;5096244;28;20657;-84
2021/01/27 10:07:27;;;;;;;11.57;8.13;;;;;;;;;;5101121;28;20016;-85
2021/01/27 10:09:57;;;;;;;21.65;10.35;;;;;;;;;;5058625;28;20028;-84
2021/01/27 10:12:27;;;;;;;18.33;9.93;;;;;;;;;;5099116;28;20051;-84
2021/01/27 10:15:02;;;;;;;13.55;7.97;;;;;;;;;;5093642;28;20004;-84
2021/01/27 10:17:30;;;;;;;17.60;10.43;;;;;;;;;;5095091;28;20085;-85
2021/01/27 10:20:05;;;;;;;20.73;11.60;;;;;;;;;;5095621;28;20026;-85
2021/01/27 10:22:34;;;;;;;18.02;10.40;;;;;;;;;;5093453;28;20024;-85
2021/01/27 10:25:01;;;;;;;12.60;7.72;;;;;;;;;;5100928;28;20020;-85
2021/01/27 10:27:29;;;;;;;9.68;6.55;;;;;;;;;;5100780;28;20024;-85
2021/01/27 10:29:55;;;;;;;8.95;5.95;;;;;;;;;;5103142;28;20044;-85
2021/01/27 10:32:36;;;;;;;7.82;4.72;;;;;;;;;;5097823;28;20026;-84
2021/01/27 10:35:22;;;;;;;27.50;17.23;;;;;;;;;;5093702;28;20024;-83
2021/01/27 10:37:47;;;;;;;16.48;10.02;;;;;;;;;;5080237;28;20416;-83
2021/01/27 10:40:22;;;;;;;11.35;6.43;;;;;;;;;;5084332;28;20023;-84
2021/01/27 10:43:00;;;;;;;16.02;9.52;;;;;;;;;;5079259;28;20384;-84
2021/01/27 10:45:39;;;;;;;16.50;10.30;;;;;;;;;;5081935;28;20048;-83
2021/01/27 10:48:21;;;;;;;15.00;9.02;;;;;;;;;;5076324;28;20035;-83
2021/01/27 10:50:49;;;;;;;10.10;6.00;;;;;;;;;;5068433;28;20020;-83
2021/01/27 10:53:16;;;;;;;5.60;3.33;;;;;;;;;;5082390;28;20059;-82
2021/01/27 10:55:44;;;;;;;5.90;2.55;;;;;;;;;;5081556;28;20150;-83
2021/01/27 10:58:15;;;;;;;4.43;2.53;;;;;;;;;;5082281;28;20032;-84
2021/01/27 11:00:41;;;;;;;3.65;2.33;;;;;;;;;;5078484;28;20077;-84
2021/01/27 11:03:07;;;;;;;3.67;2.33;;;;;;;;;;5081857;28;20051;-84
2021/01/27 11:05:33;;;;;;;9.40;4.60;;;;;;;;;;5080688;28;20476;-82
2021/01/27 11:07:59;;;;;;;10.25;6.15;;;;;;;;;;5075469;28;20035;-84
2021/01/27 11:10:25;;;;;;;19.15;7.05;;;;;;;;;;5080395;28;20090;-83
2021/01/27 11:12:51;;;;;;;19.85;10.02;;;;;;;;;;5081752;28;20508;-84
2021/01/27 11:15:17;;;;;;;15.65;8.05;;;;;;;;;;5087118;28;20020;-84
2021/01/27 11:17:43;;;;;;;11.63;6.75;;;;;;;;;;5082408;28;20035;-84
2021/01/27 11:20:09;;;;;;;7.45;4.55;;;;;;;;;;5081496;28;20072;-83
2021/01/27 11:22:34;;;;;;;7.68;4.20;;;;;;;;;;5080784;28;20016;-84
2021/01/27 11:25:00;;;;;;;7.88;4.38;;;;;;;;;;5084305;28;20023;-84
2021/01/27 11:27:26;;;;;;;9.50;4.07;;;;;;;;;;5082038;28;20028;-84
2021/01/27 11:29:52;;;;;;;11.55;5.97;;;;;;;;;;5078736;28;20102;-82
2021/01/27 11:32:17;;;;;;;11.00;6.40;;;;;;;;;;5078300;28;20024;-84
2021/01/27 11:34:43;;;;;;;9.18;6.18;;;;;;;;;;5085797;28;20031;-84
2021/01/27 11:37:10;;;;;;;17.38;6.88;;;;;;;;;;5090691;28;20051;-85
2021/01/27 11:39:35;;;;;;;8.52;5.97;;;;;;;;;;5073886;28;20075;-83
2021/01/27 11:42:01;;;;;;;8.57;5.07;;;;;;;;;;5077874;28;20033;-84
2021/01/27 11:44:27;;;;;;;13.30;6.72;;;;;;;;;;5075720;28;20035;-83
2021/01/27 11:46:53;;;;;;;6.80;4.53;;;;;;;;;;5084793;28;20111;-83
2021/01/27 11:49:18;;;;;;;6.70;3.92;;;;;;;;;;5079314;28;20093;-83
2021/01/27 11:51:44;;;;;;;6.30;3.90;;;;;;;;;;5086776;28;20013;-83
2021/01/27 11:54:10;;;;;;;6.78;3.45;;;;;;;;;;5082329;28;20031;-84
2021/01/27 11:56:35;;;;;;;5.63;3.25;;;;;;;;;;5088442;28;20028;-83
2021/01/27 12:01:20;;;;;;;5.72;3.15;;;;;;;;;;5106837;27;20380;-84
2021/01/27 12:03:46;;;;;;;6.57;4.10;;;;;;;;;;5107532;28;20035;-83
2021/01/27 12:06:11;;;;;;;5.47;3.88;;;;;;;;;;5106993;28;20428;-82
2021/01/27 12:08:37;;;;;;;6.00;3.70;;;;;;;;;;5103782;28;20020;-82
2021/01/27 12:11:03;;;;;;;7.10;4.63;;;;;;;;;;5108533;28;20067;-83
2021/01/27 12:13:28;;;;;;;9.40;4.68;;;;;;;;;;5115109;28;20024;-84
2021/01/27 12:15:54;;;;;;;10.73;5.93;;;;;;;;;;5118177;28;20386;-83
2021/01/27 12:18:20;;;;;;;22.42;11.00;;;;;;;;;;5107104;27;20055;-80
2021/01/27 12:20:48;;;;;;;16.52;8.90;;;;;;;;;;5108377;28;20056;-82
2021/01/27 12:23:14;;;;;;;8.27;5.75;;;;;;;;;;5107970;28;20429;-83
2021/01/27 12:25:41;;;;;;;6.10;3.83;;;;;;;;;;5096834;28;20012;-84
2021/01/27 12:28:06;;;;;;;6.88;4.32;;;;;;;;;;5100506;28;20039;-84
2021/01/27 12:30:32;;;;;;;9.13;5.47;;;;;;;;;;5099280;28;20432;-83
2021/01/27 12:32:58;;;;;;;9.63;5.38;;;;;;;;;;5102622;28;20019;-83
2021/01/27 12:35:23;;;;;;;8.85;4.45;;;;;;;;;;5096991;28;20500;-84
2021/01/27 12:37:49;;;;;;;12.55;7.15;;;;;;;;;;5101329;28;20077;-83
2021/01/27 12:40:16;;;;;;;9.70;6.07;;;;;;;;;;5095062;28;20028;-84
2021/01/27 12:42:42;;;;;;;10.85;7.88;;;;;;;;;;5100681;28;20076;-82
2021/01/27 12:45:09;;;;;;;13.95;6.97;;;;;;;;;;5098389;28;20557;-84
2021/01/27 12:47:34;;;;;;;16.40;8.90;;;;;;;;;;5106063;28;20065;-83
2021/01/27 12:50:00;;;;;;;22.63;11.15;;;;;;;;;;5096865;28;20406;-82
2021/01/27 12:52:26;;;;;;;29.17;15.52;;;;;;;;;;5097324;28;20055;-83
2021/01/27 12:54:51;;;;;;;21.17;10.68;;;;;;;;;;5097144;28;20112;-84
2021/01/27 12:57:17;;;;;;;17.83;8.25;;;;;;;;;;5099951;28;20110;-83
2021/01/27 12:59:43;;;;;;;12.35;7.35;;;;;;;;;;5099643;28;20478;-83
2021/01/27 13:02:08;;;;;;;14.27;8.45;;;;;;;;;;5100751;27;20111;-83
2021/01/27 13:04:34;;;;;;;9.57;5.72;;;;;;;;;;5099708;28;20115;-84
2021/01/27 13:07:00;;;;;;;26.20;12.45;;;;;;;;;;5106241;28;20028;-84
2021/01/27 13:09:25;;;;;;;20.20;12.27;;;;;;;;;;5095249;28;20115;-84
2021/01/27 13:11:51;;;;;;;18.83;11.40;;;;;;;;;;5091127;28;20016;-83
2021/01/27 13:14:18;;;;;;;10.48;6.57;;;;;;;;;;5099652;28;20417;-83
2021/01/27 13:16:44;;;;;;;15.82;11.07;;;;;;;;;;5099065;28;20028;-84
2021/01/27 13:19:10;;;;;;;8.98;5.95;;;;;;;;;;5079756;28;20116;-84
2021/01/27 13:21:35;;;;;;;12.48;7.05;;;;;;;;;;5084178;28;20020;-84
2021/01/27 13:24:01;;;;;;;26.58;18.63;;;;;;;;;;5084296;28;20490;-82
2021/01/27 13:26:27;;;;;;;13.82;8.07;;;;;;;;;;5081283;28;20139;-84
2021/01/27 13:28:52;;;;;;;12.20;5.65;;;;;;;;;;5081707;28;20107;-82
2021/01/27 13:31:18;;;;;;;15.02;8.93;;;;;;;;;;5077161;28;20107;-83
2021/01/27 13:33:43;;;;;;;14.93;8.57;;;;;;;;;;5086972;28;20127;-83
2021/01/27 13:36:09;;;;;;;13.60;6.88;;;;;;;;;;5084715;28;20111;-84
2021/01/27 13:38:38;;;;;;;16.25;8.48;;;;;;;;;;5080934;28;20383;-84
2021/01/27 13:41:04;;;;;;;22.60;12.30;;;;;;;;;;5083278;28;20032;-84
2021/01/27 13:43:29;;;;;;;53.33;24.75;;;;;;;;;;5079010;28;20032;-82
2021/01/27 13:45:55;;;;;;;23.02;12.32;;;;;;;;;;5104893;28;20019;-82
2021/01/27 13:48:21;;;;;;;11.77;6.60;;;;;;;;;;5093349;28;20028;-82
2021/01/27 13:50:47;;;;;;;8.15;5.40;;;;;;;;;;5106056;28;20099;-83
2021/01/27 13:53:13;;;;;;;17.90;9.05;;;;;;;;;;5102730;27;20054;-82
2021/01/27 13:55:39;;;;;;;16.20;9.35;;;;;;;;;;5076244;28;20028;-82
2021/01/27 13:58:04;;;;;;;19.63;10.93;;;;;;;;;;5088737;28;20028;-82
2021/01/27 14:00:30;;;;;;;21.67;14.13;;;;;;;;;;5086273;28;20492;-82
2021/01/27 14:02:56;;;;;;;15.45;8.73;;;;;;;;;;5104383;28;20052;-82
2021/01/27 14:05:23;;;;;;;12.30;5.63;;;;;;;;;;5094879;28;20025;-82
2021/01/27 14:07:50;;;;;;;8.10;4.70;;;;;;;;;;5080426;28;20476;-82
2021/01/27 14:10:17;;;;;;;11.93;8.60;;;;;;;;;;5083459;28;20036;-82
2021/01/27 14:12:42;;;;;;;11.45;8.00;;;;;;;;;;5096935;28;20394;-82
2021/01/27 14:15:11;;;;;;;8.57;5.93;;;;;;;;;;5089689;28;20024;-82
2021/01/27 14:17:37;;;;;;;8.50;5.50;;;;;;;;;;5083745;28;20032;-82
2021/01/27 14:20:04;;;;;;;10.80;4.97;;;;;;;;;;5082246;28;20104;-82
2021/01/27 14:22:29;;;;;;;10.50;6.07;;;;;;;;;;5079036;28;20071;-82
2021/01/27 14:24:55;;;;;;;12.85;7.50;;;;;;;;;;5097639;28;20011;-82
2021/01/27 14:27:21;;;;;;;11.82;6.80;;;;;;;;;;5090574;28;20023;-82
2021/01/27 14:29:47;;;;;;;8.90;5.47;;;;;;;;;;5098673;28;20070;-82
2021/01/27 14:32:13;;;;;;;7.47;4.55;;;;;;;;;;5088954;28;20102;-81
2021/01/27 14:34:39;;;;;;;13.00;6.25;;;;;;;;;;5083922;28;20593;-81
2021/01/27 14:37:04;;;;;;;15.02;7.10;;;;;;;;;;5097929;28;20112;-81
2021/01/27 14:39:30;;;;;;;11.00;5.55;;;;;;;;;;5076720;28;20769;-83
2021/01/27 14:41:56;;;;;;;12.98;6.72;;;;;;;;;;5080247;28;20051;-84
2021/01/27 14:44:21;;;;;;;13.15;7.68;;;;;;;;;;5079394;28;20024;-82
2021/01/27 14:46:49;;;;;;;10.38;5.95;;;;;;;;;;5081877;28;20028;-85
2021/01/27 14:49:15;;;;;;;7.47;4.75;;;;;;;;;;5080317;28;20091;-84
2021/01/27 14:51:40;;;;;;;9.82;5.60;;;;;;;;;;5082530;28;20101;-84
2021/01/27 14:54:06;;;;;;;11.63;5.93;;;;;;;;;;5082066;28;20027;-83
2021/01/27 14:56:32;;;;;;;14.05;6.25;;;;;;;;;;5082109;28;20020;-84
2021/01/27 14:58:58;;;;;;;13.25;7.05;;;;;;;;;;5078792;28;20032;-83
2021/01/27 15:01:24;;;;;;;13.52;7.55;;;;;;;;;;5082138;28;20031;-82
2021/01/27 15:03:49;;;;;;;12.98;6.82;;;;;;;;;;5084199;28;20687;-82
2021/01/27 15:06:15;;;;;;;13.25;7.00;;;;;;;;;;5079280;28;20655;-83
2021/01/27 15:08:41;;;;;;;14.80;7.75;;;;;;;;;;5087846;28;20020;-83
2021/01/27 15:11:07;;;;;;;16.40;9.75;;;;;;;;;;5085976;28;20003;-82
2021/01/27 15:13:32;;;;;;;14.02;8.57;;;;;;;;;;5086288;28;20055;-82
2021/01/27 15:15:58;;;;;;;12.43;7.57;;;;;;;;;;5083073;28;20028;-82
2021/01/27 15:18:24;;;;;;;10.63;6.95;;;;;;;;;;5084711;28;20021;-82
2021/01/27 15:20:49;;;;;;;13.40;6.55;;;;;;;;;;5082888;28;20024;-85
2021/01/27 15:23:15;;;;;;;9.68;6.00;;;;;;;;;;5088850;28;20028;-86
2021/01/27 15:25:41;;;;;;;6.93;4.72;;;;;;;;;;5090100;28;20020;-85
2021/01/27 15:28:06;;;;;;;8.18;4.63;;;;;;;;;;5084037;28;20016;-86
2021/01/27 15:30:32;;;;;;;8.93;4.40;;;;;;;;;;5085455;28;20030;-86
2021/01/27 15:32:58;;;;;;;6.20;3.58;;;;;;;;;;5099452;28;20434;-88
2021/01/27 15:35:24;;;;;;;7.65;3.90;;;;;;;;;;5094593;28;20096;-87
2021/01/27 15:37:50;;;;;;;6.53;3.88;;;;;;;;;;5091989;28;20506;-88
2021/01/27 15:40:16;;;;;;;7.68;4.43;;;;;;;;;;5090868;28;20020;-88
2021/01/27 15:42:42;;;;;;;6.05;3.45;;;;;;;;;;5077380;28;20434;-87
2021/01/27 15:45:08;;;;;;;7.38;4.20;;;;;;;;;;5099597;28;20722;-86
2021/01/27 15:47:33;;;;;;;6.65;4.35;;;;;;;;;;5089158;28;20081;-87
2021/01/27 15:49:59;;;;;;;6.90;4.28;;;;;;;;;;5100516;28;20024;-88
2021/01/27 15:52:25;;;;;;;5.45;3.60;;;;;;;;;;5099955;28;20073;-89
2021/01/27 15:57:09;;;;;;;10.25;6.25;;;;;;;;;;5087662;28;20377;-87
2021/01/27 15:59:35;;;;;;;62.70;26.30;;;;;;;;;;5078038;28;20051;-87
2021/01/27 16:02:00;;;;;;;46.42;23.35;;;;;;;;;;5059093;28;20478;-87
2021/01/27 16:04:26;;;;;;;51.72;25.05;;;;;;;;;;5070237;28;20039;-87
2021/01/27 16:06:52;;;;;;;33.03;19.98;;;;;;;;;;5078324;28;20089;-86
2021/01/27 16:09:19;;;;;;;26.58;16.58;;;;;;;;;;5086468;28;20524;-87
2021/01/27 16:11:45;;;;;;;16.60;11.25;;;;;;;;;;5078526;28;20058;-87
2021/01/27 16:14:11;;;;;;;9.85;6.65;;;;;;;;;;5091950;28;20060;-87
2021/01/27 16:16:37;;;;;;;11.57;7.35;;;;;;;;;;5095350;28;20016;-87
2021/01/27 16:19:04;;;;;;;9.45;5.97;;;;;;;;;;5089985;28;20066;-86
2021/01/27 16:21:29;;;;;;;7.70;4.50;;;;;;;;;;5065665;28;20039;-85
2021/01/27 16:23:55;;;;;;;6.15;3.75;;;;;;;;;;5081829;28;20016;-86
2021/01/27 16:26:21;;;;;;;5.43;3.35;;;;;;;;;;5080053;28;20480;-87
2021/01/27 16:28:47;;;;;;;7.18;4.22;;;;;;;;;;5084149;28;20107;-87
2021/01/27 16:31:13;;;;;;;5.85;3.70;;;;;;;;;;5086994;28;20035;-88
2021/01/27 16:33:38;;;;;;;4.55;3.10;;;;;;;;;;5081620;28;20054;-87
2021/01/27 16:36:04;;;;;;;6.35;3.83;;;;;;;;;;5075956;28;20027;-87
2021/01/27 16:38:30;;;;;;;6.57;3.92;;;;;;;;;;5090950;28;20464;-88
2021/01/27 16:40:56;;;;;;;5.10;3.30;;;;;;;;;;5077124;28;20020;-87
2021/01/27 16:43:22;;;;;;;6.22;4.18;;;;;;;;;;5068196;28;20036;-87
2021/01/27 16:45:51;;;;;;;7.32;3.70;;;;;;;;;;5081501;28;20093;-88
2021/01/27 16:48:17;;;;;;;6.22;3.78;;;;;;;;;;5074990;28;20060;-87
2021/01/27 16:50:42;;;;;;;9.25;4.15;;;;;;;;;;5084020;28;20032;-83
2021/01/27 16:53:08;;;;;;;7.90;3.88;;;;;;;;;;5073352;28;20038;-84
2021/01/27 16:55:34;;;;;;;7.47;3.50;;;;;;;;;;5083057;28;20077;-84
2021/01/27 16:58:00;;;;;;;6.93;4.28;;;;;;;;;;5071107;28;20029;-86
2021/01/27 17:00:26;;;;;;;6.07;3.63;;;;;;;;;;5092101;28;20024;-84
2021/01/27 17:02:54;;;;;;;4.90;3.13;;;;;;;;;;5093845;28;20027;-84
2021/01/27 17:05:24;;;;;;;7.10;3.60;;;;;;;;;;5078969;28;20511;-88
2021/01/27 17:07:53;;;;;;;5.23;3.30;;;;;;;;;;5045713;28;20020;-87
2021/01/27 17:10:19;;;;;;;8.45;2.92;;;;;;;;;;5060552;28;20267;-88
2021/01/27 17:12:45;;;;;;;5.05;3.03;;;;;;;;;;5046294;28;20078;-87
2021/01/27 17:15:11;;;;;;;5.22;3.40;;;;;;;;;;5052495;28;20028;-87
2021/01/27 17:17:37;;;;;;;5.28;3.40;;;;;;;;;;5046346;28;20742;-88
2021/01/27 17:20:04;;;;;;;7.78;4.18;;;;;;;;;;5054267;28;20056;-88
2021/01/27 17:22:29;;;;;;;5.70;3.75;;;;;;;;;;5040903;28;20052;-88
2021/01/27 17:24:55;;;;;;;8.50;4.40;;;;;;;;;;5049041;28;21320;-88
2021/01/27 17:27:20;;;;;;;9.07;5.60;;;;;;;;;;5048431;28;20035;-87
2021/01/27 17:29:46;;;;;;;7.05;4.30;;;;;;;;;;5064360;28;20112;-88
2021/01/27 17:32:12;;;;;;;6.10;3.80;;;;;;;;;;5065063;28;20109;-88
2021/01/27 17:34:38;;;;;;;5.07;3.00;;;;;;;;;;5046908;28;20151;-88
2021/01/27 17:37:03;;;;;;;6.07;3.63;;;;;;;;;;5050093;28;20516;-88
2021/01/27 17:39:29;;;;;;;5.53;3.40;;;;;;;;;;5042076;28;20020;-87
2021/01/27 17:41:55;;;;;;;21.63;9.57;;;;;;;;;;5050570;28;20017;-85
2021/01/27 17:44:21;;;;;;;12.60;6.57;;;;;;;;;;5042827;28;20115;-88
2021/01/27 17:46:46;;;;;;;8.55;5.00;;;;;;;;;;5067539;28;20025;-88
2021/01/27 17:51:31;;;;;;;9.68;5.82;;;;;;;;;;5099478;27;20363;-87
2021/01/27 17:53:57;;;;;;;7.65;3.88;;;;;;;;;;5076031;28;20059;-87
2021/01/27 17:56:23;;;;;;;9.20;6.00;;;;;;;;;;5075863;28;20052;-87
2021/01/27 17:58:49;;;;;;;10.63;4.95;;;;;;;;;;5077941;28;20035;-87
2021/01/27 18:01:14;;;;;;;9.82;5.50;;;;;;;;;;5073986;28;20123;-86
2021/01/27 18:03:40;;;;;;;53.88;17.45;;;;;;;;;;5072731;28;20024;-87
2021/01/27 18:06:06;;;;;;;38.47;14.23;;;;;;;;;;5085079;28;20040;-83
2021/01/27 18:08:32;;;;;;;24.17;10.50;;;;;;;;;;5098230;28;20028;-83
2021/01/27 18:10:58;;;;;;;22.40;10.85;;;;;;;;;;5073867;28;20092;-83
2021/01/27 18:13:24;;;;;;;18.00;7.75;;;;;;;;;;5083964;28;20039;-84
2021/01/27 18:15:50;;;;;;;12.25;6.63;;;;;;;;;;5070837;28;20024;-84
2021/01/27 18:18:16;;;;;;;10.05;5.20;;;;;;;;;;5073408;28;20024;-84
2021/01/27 18:20:42;;;;;;;8.95;5.28;;;;;;;;;;5093467;28;20554;-84
2021/01/27 18:23:08;;;;;;;7.07;4.85;;;;;;;;;;5101853;28;20028;-83
2021/01/27 18:25:35;;;;;;;7.60;4.68;;;;;;;;;;5086505;28;20032;-84
2021/01/27 18:28:01;;;;;;;6.78;3.70;;;;;;;;;;5085971;28;20054;-84
2021/01/27 18:30:27;;;;;;;6.50;3.97;;;;;;;;;;5093025;28;20486;-84
2021/01/27 18:32:53;;;;;;;10.30;5.30;;;;;;;;;;5070818;28;20481;-84
2021/01/27 18:35:20;;;;;;;8.55;5.00;;;;;;;;;;5077474;28;20097;-85
2021/01/27 18:37:46;;;;;;;6.25;4.00;;;;;;;;;;5096682;28;20044;-83
2021/01/27 18:40:13;;;;;;;12.32;6.20;;;;;;;;;;5092387;28;20031;-83
2021/01/27 18:42:39;;;;;;;10.55;5.20;;;;;;;;;;5070152;28;20035;-84
2021/01/27 18:45:06;;;;;;;7.90;4.55;;;;;;;;;;5075797;28;20060;-84
2021/01/27 18:47:32;;;;;;;12.00;7.07;;;;;;;;;;5092685;28;20031;-83
2021/01/27 18:49:57;;;;;;;8.60;6.00;;;;;;;;;;5088393;28;20043;-83
2021/01/27 18:52:23;;;;;;;11.52;6.93;;;;;;;;;;5086929;28;20100;-84
2021/01/27 18:54:49;;;;;;;26.80;14.98;;;;;;;;;;5082190;28;20016;-83
2021/01/27 18:57:14;;;;;;;8.07;4.90;;;;;;;;;;5080043;28;19912;-84
2021/01/27 18:59:40;;;;;;;13.55;6.30;;;;;;;;;;5064349;28;20111;-84
2021/01/27 19:02:06;;;;;;;10.15;4.47;;;;;;;;;;5057427;28;20108;-83
2021/01/27 19:06:49;;;;;;;5.70;3.88;;;;;;;;;;5106015;27;20363;-85
2021/01/27 19:09:15;;;;;;;8.95;5.38;;;;;;;;;;5090925;28;20035;-83
2021/01/27 19:11:41;;;;;;;9.40;5.97;;;;;;;;;;5087806;28;20082;-83
2021/01/27 19:14:07;;;;;;;8.32;3.97;;;;;;;;;;5095990;28;20150;-82
2021/01/27 19:16:32;;;;;;;7.97;4.88;;;;;;;;;;5094830;28;20107;-82
2021/01/27 19:18:58;;;;;;;9.95;5.75;;;;;;;;;;5093707;28;20031;-82
2021/01/27 19:21:25;;;;;;;10.90;6.32;;;;;;;;;;5092872;28;20028;-82
2021/01/27 19:23:51;;;;;;;7.47;4.72;;;;;;;;;;5090795;28;20017;-82
2021/01/27 19:26:17;;;;;;;6.53;4.40;;;;;;;;;;5093836;28;20016;-83
2021/01/27 19:28:43;;;;;;;6.50;3.70;;;;;;;;;;5094132;28;20036;-83
2021/01/27 19:31:10;;;;;;;8.95;5.47;;;;;;;;;;5099387;28;20114;-83
2021/01/27 19:33:37;;;;;;;7.43;4.60;;;;;;;;;;5094393;28;20107;-82
2021/01/27 19:36:02;;;;;;;16.30;7.57;;;;;;;;;;5097090;28;20031;-82
2021/01/27 19:38:28;;;;;;;6.32;4.20;;;;;;;;;;5095350;28;20016;-83
2021/01/27 19:40:54;;;;;;;6.13;4.03;;;;;;;;;;5092658;28;20024;-83
2021/01/27 19:43:23;;;;;;;4.90;2.92;;;;;;;;;;5089921;28;20495;-83
2021/01/27 19:45:50;;;;;;;6.50;4.43;;;;;;;;;;5087875;28;20471;-82
2021/01/27 19:48:17;;;;;;;8.65;5.50;;;;;;;;;;5091951;28;20036;-82
2021/01/27 19:50:44;;;;;;;7.60;4.80;;;;;;;;;;5090261;28;20067;-83
2021/01/27 19:53:12;;;;;;;6.60;4.50;;;;;;;;;;5094895;28;20032;-83
2021/01/27 19:55:38;;;;;;;10.45;4.88;;;;;;;;;;5090466;28;20032;-81
2021/01/27 19:58:05;;;;;;;7.68;4.88;;;;;;;;;;5094236;28;20054;-84
2021/01/27 20:00:31;;;;;;;5.82;3.50;;;;;;;;;;5089333;28;20047;-84
2021/01/27 20:02:57;;;;;;;5.90;3.92;;;;;;;;;;5090540;28;20032;-84
2021/01/27 20:05:28;;;;;;;18.50;8.25;;;;;;;;;;5098719;28;20043;-84
2021/01/27 20:07:54;;;;;;;9.38;4.78;;;;;;;;;;5090362;28;20040;-84
2021/01/27 20:10:21;;;;;;;6.50;3.30;;;;;;;;;;5088793;28;20028;-85
2021/01/27 20:12:50;;;;;;;7.25;3.75;;;;;;;;;;5092463;28;20124;-84
2021/01/27 20:15:26;;;;;;;25.38;11.80;;;;;;;;;;5093969;28;20024;-85
2021/01/27 20:17:53;;;;;;;12.13;7.38;;;;;;;;;;5079831;28;20030;-86
2021/01/27 20:20:20;;;;;;;12.02;6.88;;;;;;;;;;5073118;28;20032;-85
2021/01/27 20:22:46;;;;;;;11.40;7.07;;;;;;;;;;5078872;28;20043;-85
2021/01/27 20:25:13;;;;;;;9.32;5.18;;;;;;;;;;5078541;28;20021;-85
2021/01/27 20:27:38;;;;;;;6.85;4.35;;;;;;;;;;5083340;28;20119;-85
2021/01/27 20:30:05;;;;;;;5.60;3.45;;;;;;;;;;5078647;28;20024;-85
2021/01/27 20:32:31;;;;;;;8.70;5.72;;;;;;;;;;5082597;28;20028;-85
2021/01/27 20:34:57;;;;;;;8.77;4.75;;;;;;;;;;5076740;28;20025;-87
2021/01/27 20:37:23;;;;;;;7.10;4.03;;;;;;;;;;5076946;28;20476;-87
2021/01/27 20:39:48;;;;;;;7.00;4.20;;;;;;;;;;5078360;28;20031;-86
2021/01/27 20:42:14;;;;;;;8.23;5.32;;;;;;;;;;5078326;28;20035;-86
2021/01/27 20:44:40;;;;;;;6.35;3.80;;;;;;;;;;5075980;28;20028;-87
2021/01/27 20:47:06;;;;;;;6.75;3.92;;;;;;;;;;5074613;28;20017;-87
2021/01/27 20:49:32;;;;;;;6.05;3.55;;;;;;;;;;5078225;28;20024;-86
2021/01/27 20:51:57;;;;;;;7.35;4.10;;;;;;;;;;5079331;28;20459;-86
2021/01/27 20:54:23;;;;;;;6.30;3.45;;;;;;;;;;5091679;28;20035;-87
2021/01/27 20:56:49;;;;;;;5.95;3.80;;;;;;;;;;5080194;28;20103;-86
2021/01/27 20:59:15;;;;;;;9.48;5.15;;;;;;;;;;5075254;28;20028;-87
2021/01/27 21:01:41;;;;;;;8.45;4.63;;;;;;;;;;5081731;28;20036;-86
2021/01/27 21:04:08;;;;;;;9.35;4.18;;;;;;;;;;5080917;28;20613;-87